SBOSBO EZE / SAEZ
Speedbird OnlineSpeedbird Online EZE / SAEZ

Ministro Pistarini International Airport
16:11 22.2°C

Location Buenos Aires, Argentina
Latitude: -34.8222
Longitude: -58.5358
Web Airport Website | Wikipedia
Altitude 20 Meter / 67 Feet
Distance 11,169 KM / 6,940 Miles
from London.
Time Zone UTC -3 hours (America/Buenos_Aires)
Codes IATA: EZE
ICAO: SAEZ
Currency £1 equals ARS 158.63
Runways
RunwayLength (m)Surface
113300Asphalt
173105Asphalt
293300Asphalt
353105Asphalt
Radio
TypeDescriptionFrequency
A/DBAIRES CON124.9
APPEZEIZA APP119.9
ATISATIS127.8
GCCDGND/CLNC DEL121.75
TWREZEIZA TWR118.6
Live ATC
METAR SAEZ 241900Z 06009KT CAVOK 22/00 Q1017 NOSIG RMK PP000
TAF TAF SAEZ 241700Z 2418/2518 05010KT CAVOK TX23/2418Z TN09/2510Z BECMG 2504/2506 07005KT PROB40 2507/2510 VRB03KT 5000 BR BECMG 2512/2514 05010KT
Weather As Of 24 Sep 2022 16:11
Description Clear sky
Wind 17 km/h from North-East (60°)
Cloud Cover 0%
Precipitation Rain: none, Snow: none
Sunrise 06:40
Sunset 18:51
Lounges Vipclub Lounge, Terminal A
American Airlines Admirals Club and; Iberia VIP Lounge, Terminal B
LATAM VIP Lounge TEMPORARILY CLOSED, Terminal B
Rotations During the last 90 days there were
64 flights from GRU
61 flights to GRU


© 2017-2022 Speedbird Online